COOK1: Arkansas River Nr Coolidge, KS

                                SHEF ID:       COOK1     ARKANSAS R NR COOLIDGE, KS
STATION TYPE:
Regulating: Stage = 8.00, Flow = 2028

PRECIP STAGE STAGE(2) RIV-FLOW WTR-TEMP CONDUCT BAT-LOAD
in ft ft cfs F umho/cm volt
Ccp-Rev Ccp-Rev Ccp-Rev Ccp-Rev Ccp-Rev Ccp-Rev Ccp-Rev
(America/Chicago)
08/01 00:00 0.00 4.68 4.79 413 80.06 3251 12.95
08/01 01:00 0.00 4.66 4.80 408 79.36 3269 12.89
08/01 02:00 0.00 4.67 4.79 411 78.58 3278 12.89
08/01 03:00 0.00 4.66 4.78 408 77.85 3285 12.89
08/01 04:00 0.00 4.64 4.79 402 77.20 3285 12.89
08/01 05:00 0.00 4.65 4.78 405 76.57 3283 12.83
08/01 06:00 0.00 4.66 4.81 408 75.87 3274 12.83
08/01 07:00 0.00 4.63 4.77 400 75.18 3271 12.77
08/01 08:00 0.00 4.63 4.78 400 74.64 3272 12.83
08/01 09:00 0.00 4.64 4.79 402 74.43 3278 12.95
08/01 10:00 0.00 4.67 4.81 411 74.66 3285 13.18
08/01 11:00 0.00 4.64 4.78 402 75.36 3299 13.59
08/01 12:00 0.00 4.63 4.80 400 76.37 3314 13.71
08/01 13:00 0.00 4.65 4.79 405 77.63 3328 13.77
08/01 14:00 0.00 4.67 4.82 411 79.02 3330 13.71
08/01 15:00 0.00 4.63 4.79 400 80.28 3330 13.71
08/01 16:00 0.00 4.65 4.79 405 81.37 3319 13.59
08/01 17:00 0.00 4.63 4.77 400 82.15 3301 13.48
08/01 18:00 0.00 4.62 4.76 397 82.58 3287 13.36
08/01 19:00 0.00 4.61 4.76 394 82.24 3265 13.12
08/01 20:00 0.00 4.61 4.73 394 81.73 3247 13.07
08/01 21:00 0.00 4.61 4.74 394 81.32 3235 13.00
08/01 22:00 0.00 4.58 4.73 386 80.91 3231 13.00
08/01 23:00 0.00 4.61 4.74 394 80.49 3235 12.95
Data processed at Fri 02Aug2024 14:06 GMT

Parsing this webpage?

Checkout our new Data API! CWMSDataAPI (CDA)

Timeseries IDs (TSIDs)

TSIDs used from left to right in the data table
COOL.Precip-Inc.Total.1Hour.1Hour.Ccp-Rev
COOL.Stage.Inst.1Hour.0.Ccp-Rev
COOL.Stage-Alt.Inst.1Hour.0.Ccp-Rev
COOL.Flow.Inst.1Hour.0.Ccp-Rev
COOL.Temp-Water.Inst.1Hour.0.Ccp-Rev
COOL.Cond.Inst.1Hour.0.Ccp-Rev
COOL.Volt-Battery Load.Inst.1Hour.0.Ccp-Rev

                            

All information presented herein is the property of the government of the United States of America and may be revised or deleted at any time without prior notice. Dissemination of this information without the expressed written consent of the Public Affairs Office, Tulsa District U.S. Army Corps of Engineers is strictly prohibited. These data are gathered electronically and, as presented, have NOT undergone any form of quality control. These data are NOT guaranteed to be valid or correct.